Time;durP1;ratioP1;P1;durP2;ratioP2;P2;SDS_P1;SDS_P2;PMS_P1;PMS_P2;Temp;Humidity;BMP_temperature;BMP_pressure;BME280_temperature;BME280_humidity;BME280_pressure;Samples;Min_cycle;Max_cycle;Signal;HPM_P1;HPM_P2
2024/02/03 00:08:49;;;;;;;8.90;3.93;;;;;;;4.80;100.00;100337.81;31276277;28;20059;-81
2024/02/03 00:23:51;;;;;;;7.77;3.53;;;;;;;4.83;100.00;100336.28;31266750;28;20110;-82
2024/02/03 00:38:54;;;;;;;8.33;3.60;;;;;;;5.04;100.00;100322.97;31274957;28;20061;-82
2024/02/03 00:53:56;;;;;;;8.17;4.20;;;;;;;5.10;100.00;100316.09;31264098;28;20443;-81
2024/02/03 01:08:58;;;;;;;6.87;3.63;;;;;;;5.17;100.00;100308.09;31274496;28;20049;-83
2024/02/03 01:24:01;;;;;;;10.83;3.43;;;;;;;5.37;100.00;100298.56;31275018;28;20057;-82
2024/02/03 01:39:06;;;;;;;5.67;3.10;;;;;;;5.34;100.00;100290.47;31270084;28;20054;-83
2024/02/03 01:54:08;;;;;;;14.53;3.90;;;;;;;5.21;100.00;100289.25;31256375;28;20220;-82
2024/02/03 02:09:21;;;;;;;12.23;4.00;;;;;;;5.32;100.00;100276.63;31283417;28;20064;-82
2024/02/03 02:24:23;;;;;;;8.50;4.50;;;;;;;4.98;100.00;100257.22;31271132;28;20523;-83
2024/02/03 02:39:25;;;;;;;11.17;4.77;;;;;;;5.06;100.00;100256.88;31271240;28;20432;-83
2024/02/03 02:54:27;;;;;;;7.20;3.93;;;;;;;5.09;100.00;100266.91;31280252;28;20517;-79
2024/02/03 03:09:29;;;;;;;7.27;3.50;;;;;;;5.21;100.00;100256.94;31284835;28;20195;-81
2024/02/03 03:24:32;;;;;;;8.07;4.47;;;;;;;4.69;100.00;100242.84;31283294;28;20080;-83
2024/02/03 03:39:34;;;;;;;12.17;4.47;;;;;;;4.57;100.00;100235.84;31286592;28;20312;-81
2024/02/03 03:54:36;;;;;;;15.43;4.17;;;;;;;4.55;100.00;100231.97;31274258;28;20544;-82
2024/02/03 04:09:38;;;;;;;16.50;5.73;;;;;;;4.40;100.00;100231.91;31278436;28;20096;-81
2024/02/03 04:24:40;;;;;;;18.37;5.20;;;;;;;4.19;100.00;100223.66;31274235;28;20103;-80
2024/02/03 04:39:42;;;;;;;11.33;4.37;;;;;;;4.32;100.00;100214.16;31272873;28;20053;-81
2024/02/03 04:54:44;;;;;;;15.60;6.13;;;;;;;3.88;100.00;100210.72;31328006;28;20045;-83
2024/02/03 05:09:47;;;;;;;17.27;5.90;;;;;;;3.90;100.00;100198.47;31299637;28;20045;-82
2024/02/03 05:24:49;;;;;;;13.47;5.27;;;;;;;3.69;100.00;100188.31;31265751;28;20053;-81
2024/02/03 05:39:51;;;;;;;18.33;7.53;;;;;;;3.83;100.00;100176.91;31296108;28;20055;-83
2024/02/03 05:54:53;;;;;;;10.77;5.57;;;;;;;3.92;100.00;100179.31;31300497;28;20058;-82
2024/02/03 06:09:55;;;;;;;9.70;5.23;;;;;;;4.94;100.00;100184.59;31295506;28;20072;-80
2024/02/03 06:24:58;;;;;;;12.63;4.47;;;;;;;5.10;100.00;100176.94;31288566;28;20053;-81
2024/02/03 06:40:00;;;;;;;7.33;3.87;;;;;;;6.06;100.00;100160.97;31288885;28;20053;-83
2024/02/03 06:55:02;;;;;;;8.90;3.53;;;;;;;7.66;100.00;100159.63;31290636;28;20049;-84
2024/02/03 07:10:04;;;;;;;10.20;3.77;;;;;;;7.79;100.00;100133.66;31310820;28;20061;-80
2024/02/03 07:25:09;;;;;;;10.63;4.60;;;;;;;6.75;100.00;100124.63;31331198;28;20160;-81
2024/02/03 07:40:13;;;;;;;6.97;4.47;;;;;;;8.11;98.42;100112.53;31290124;28;20054;-82
2024/02/03 07:55:15;;;;;;;11.93;4.23;;;;;;;8.49;90.24;100102.50;31286671;28;20045;-82
2024/02/03 08:10:17;;;;;;;7.87;3.93;;;;;;;8.99;80.97;100085.63;31301235;28;20491;-83
2024/02/03 08:25:20;;;;;;;11.77;3.33;;;;;;;8.73;86.02;100067.44;31310534;28;20061;-82
2024/02/03 08:40:22;;;;;;;9.63;2.80;;;;;;;8.12;86.31;100072.72;31292197;28;20426;-82
2024/02/03 08:55:26;;;;;;;11.00;4.33;;;;;;;7.21;95.04;100050.75;31295873;28;20116;-83
2024/02/03 09:10:30;;;;;;;11.53;4.17;;;;;;;6.80;100.00;100040.59;31287869;28;20056;-83
2024/02/03 09:25:32;;;;;;;7.53;3.50;;;;;;;6.42;100.00;100037.66;31274516;28;20053;-82
2024/02/03 09:40:34;;;;;;;9.03;4.10;;;;;;;6.39;100.00;99995.28;31282297;28;20388;-88
2024/02/03 09:55:36;;;;;;;8.40;3.87;;;;;;;6.58;100.00;100001.38;31293335;28;20053;-83
2024/02/03 10:10:42;;;;;;;7.77;3.63;;;;;;;6.60;100.00;99967.47;31304973;28;20033;-85
2024/02/03 10:25:47;;;;;;;13.77;4.63;;;;;;;6.52;100.00;99938.22;31313363;28;20065;-89
2024/02/03 10:40:51;;;;;;;11.87;4.40;;;;;;;6.19;100.00;99937.63;31346282;28;20049;-89
2024/02/03 10:56:04;;;;;;;13.93;4.90;;;;;;;6.07;100.00;99881.47;31331392;28;20092;-82
2024/02/03 11:11:08;;;;;;;10.13;4.43;;;;;;;6.34;100.00;99836.66;31323244;28;20407;-85
2024/02/03 11:26:11;;;;;;;8.23;3.80;;;;;;;6.50;100.00;99801.84;31287335;28;20534;-80
2024/02/03 11:41:15;;;;;;;15.30;3.73;;;;;;;6.88;100.00;99772.22;31293975;28;20061;-83
2024/02/03 11:56:17;;;;;;;5.43;2.83;;;;;;;6.49;100.00;99746.38;31281205;28;20046;-81
2024/02/03 12:11:21;;;;;;;11.87;3.60;;;;;;;6.58;100.00;99710.13;31286222;28;20053;-81
2024/02/03 12:26:23;;;;;;;7.30;3.33;;;;;;;6.67;100.00;99705.75;31240454;28;20045;-82
2024/02/03 12:41:26;;;;;;;9.73;3.97;;;;;;;6.59;100.00;99682.75;31266158;28;20079;-85
2024/02/03 12:56:28;;;;;;;5.60;3.33;;;;;;;6.42;100.00;99665.56;31276109;28;20049;-83
2024/02/03 13:11:30;;;;;;;7.03;3.50;;;;;;;6.47;100.00;99656.28;31280821;28;20050;-89
2024/02/03 13:26:32;;;;;;;9.23;3.57;;;;;;;6.68;100.00;99595.94;31259534;28;20045;-86
2024/02/03 13:41:35;;;;;;;7.63;3.03;;;;;;;6.27;100.00;99604.88;31287538;28;20038;-84
2024/02/03 13:56:37;;;;;;;13.70;3.63;;;;;;;6.38;100.00;99581.25;31301135;28;20053;-87
2024/02/03 14:11:43;;;;;;;7.47;3.70;;;;;;;6.12;100.00;99571.91;31288753;28;20092;-86
2024/02/03 14:26:55;;;;;;;10.87;2.70;;;;;;;5.51;100.00;99500.13;31279332;28;20053;-84
2024/02/03 14:41:57;;;;;;;14.27;3.23;;;;;;;5.44;100.00;99472.09;31249935;28;20048;-82
2024/02/03 14:56:59;;;;;;;9.30;4.23;;;;;;;5.26;100.00;99478.78;31236897;28;20045;-81
2024/02/03 15:12:01;;;;;;;12.73;4.40;;;;;;;5.25;100.00;99466.50;31288008;28;20045;-81
2024/02/03 15:27:03;;;;;;;8.23;4.73;;;;;;;5.14;100.00;99435.06;31269521;28;20053;-81
2024/02/03 15:42:06;;;;;;;15.03;4.53;;;;;;;5.06;100.00;99422.06;31290734;28;20076;-80
2024/02/03 15:57:08;;;;;;;14.27;5.67;;;;;;;6.20;100.00;99432.44;31260101;28;20519;-80
2024/02/03 16:12:16;;;;;;;13.20;5.83;;;;;;;6.29;100.00;99421.94;31297232;28;20556;-83
2024/02/03 16:27:18;;;;;;;15.47;5.30;;;;;;;6.48;100.00;99383.53;31276575;28;20049;-81
2024/02/03 16:42:20;;;;;;;15.33;6.90;;;;;;;4.99;100.00;99352.94;31280409;28;20402;-82
2024/02/03 16:57:22;;;;;;;15.67;7.73;;;;;;;5.06;100.00;99315.22;31238224;28;20079;-81
2024/02/03 17:12:25;;;;;;;20.37;7.43;;;;;;;6.55;100.00;99328.75;31253688;28;20041;-83
2024/02/03 17:27:28;;;;;;;16.83;8.90;;;;;;;5.37;100.00;99307.22;31269418;28;20097;-83
2024/02/03 17:42:30;;;;;;;17.53;8.43;;;;;;;5.35;100.00;99269.19;31291111;28;20086;-82
2024/02/03 17:57:34;;;;;;;22.07;9.03;;;;;;;5.48;100.00;99248.63;31266946;28;20057;-83
2024/02/03 18:12:36;;;;;;;22.13;10.10;;;;;;;6.38;100.00;99238.88;31266675;28;20048;-81
2024/02/03 18:27:38;;;;;;;18.63;8.73;;;;;;;6.57;100.00;99255.53;31256190;28;20050;-81
2024/02/03 18:42:40;;;;;;;14.70;8.23;;;;;;;6.63;100.00;99237.69;31305470;28;20045;-83
2024/02/03 18:57:45;;;;;;;19.87;8.87;;;;;;;6.88;100.00;99221.81;31276197;28;20069;-82
2024/02/03 19:12:47;;;;;;;19.50;9.30;;;;;;;7.18;100.00;99202.72;31344683;28;20053;-85
2024/02/03 19:27:50;;;;;;;18.33;9.13;;;;;;;7.42;100.00;99199.91;31283775;28;20076;-84
2024/02/03 19:42:52;;;;;;;17.57;8.17;;;;;;;7.54;100.00;99188.50;31340795;28;20089;-87
2024/02/03 19:57:54;;;;;;;20.30;9.20;;;;;;;7.55;100.00;99181.91;31289112;28;20064;-84
2024/02/03 20:12:57;;;;;;;20.70;9.07;;;;;;;7.66;100.00;99166.22;31269008;28;20509;-83
2024/02/03 20:28:03;;;;;;;15.17;8.17;;;;;;;7.89;100.00;99170.69;31292258;28;20053;-87
2024/02/03 20:43:08;;;;;;;19.27;9.27;;;;;;;7.90;100.00;99174.16;31335985;28;20048;-81
2024/02/03 20:58:11;;;;;;;18.67;8.20;;;;;;;8.15;100.00;99177.03;31295793;28;20037;-85
2024/02/03 21:13:13;;;;;;;16.40;7.80;;;;;;;7.84;100.00;99153.03;31263418;28;20065;-81
2024/02/03 21:28:20;;;;;;;17.33;8.03;;;;;;;7.72;100.00;99140.22;31265550;28;20057;-81
2024/02/03 21:43:22;;;;;;;13.93;7.30;;;;;;;7.13;100.00;99119.53;31263169;28;20076;-86
2024/02/03 21:58:24;;;;;;;14.37;7.57;;;;;;;8.43;100.00;99124.97;31256354;28;20033;-83
2024/02/03 22:13:26;;;;;;;19.30;8.67;;;;;;;7.41;100.00;99112.00;31296256;28;20041;-80
2024/02/03 22:28:28;;;;;;;19.00;9.03;;;;;;;8.36;100.00;99108.91;31284774;28;20111;-81
2024/02/03 22:43:31;;;;;;;16.40;8.10;;;;;;;9.05;100.00;99103.91;31300659;28;20041;-78
2024/02/03 22:58:34;;;;;;;14.10;7.83;;;;;;;9.08;100.00;99097.63;31293650;28;20053;-83
2024/02/03 23:13:36;;;;;;;13.17;8.17;;;;;;;9.07;100.00;99096.09;31289656;28;20582;-79
2024/02/03 23:28:38;;;;;;;13.83;7.73;;;;;;;9.30;100.00;99091.56;31273471;28;20049;-79
2024/02/03 23:43:44;;;;;;;11.23;6.83;;;;;;;9.38;100.00;99104.47;31255694;28;20072;-79
2024/02/03 23:58:46;;;;;;;12.57;7.07;;;;;;;9.52;100.00;99116.81;31282467;28;20080;-81
